createdAt,value
2023-04-26T00:02:22.042Z,4.07
2023-04-26T00:04:56.758Z,3.70
2023-04-26T00:07:25.021Z,4.10
2023-04-26T00:09:52.925Z,3.50
2023-04-26T00:12:20.711Z,3.47
2023-04-26T00:14:48.036Z,3.53
2023-04-26T00:17:15.139Z,3.67
2023-04-26T00:19:42.446Z,5.35
2023-04-26T00:22:09.679Z,4.15
2023-04-26T00:24:36.972Z,4.00
2023-04-26T00:27:09.222Z,4.30
2023-04-26T00:29:37.715Z,3.75
2023-04-26T00:32:05.389Z,4.05
2023-04-26T00:34:34.267Z,3.92
2023-04-26T00:37:01.498Z,3.95
2023-04-26T00:39:29.137Z,3.65
2023-04-26T00:41:56.610Z,3.30
2023-04-26T00:44:24.016Z,3.40
2023-04-26T00:46:53.711Z,3.78
2023-04-26T00:49:23.558Z,5.20
2023-04-26T00:51:52.262Z,3.72
2023-04-26T00:54:20.642Z,3.63
2023-04-26T00:56:48.404Z,3.65
2023-04-26T00:59:15.504Z,3.38
2023-04-26T01:01:42.780Z,3.90
2023-04-26T01:04:10.076Z,3.58
2023-04-26T01:06:38.665Z,4.00
2023-04-26T01:09:10.177Z,3.92
2023-04-26T01:11:38.326Z,3.55
2023-04-26T01:14:06.572Z,5.00
2023-04-26T01:16:34.453Z,4.32
2023-04-26T01:19:13.056Z,3.70
2023-04-26T01:21:40.902Z,4.13
2023-04-26T01:24:11.085Z,3.65
2023-04-26T01:26:45.690Z,4.72
2023-04-26T01:29:19.829Z,4.10
2023-04-26T01:31:48.006Z,3.70
2023-04-26T01:34:15.372Z,4.88
2023-04-26T01:36:43.750Z,3.97
2023-04-26T01:39:10.874Z,4.13
2023-04-26T01:41:37.994Z,4.32
2023-04-26T01:44:05.423Z,3.75
2023-04-26T01:46:32.532Z,4.75
2023-04-26T01:48:59.712Z,3.78
2023-04-26T01:51:27.289Z,3.92
2023-04-26T01:53:54.497Z,3.67
2023-04-26T01:56:24.152Z,3.70
2023-04-26T01:58:51.383Z,3.60
2023-04-26T02:01:18.686Z,3.70
2023-04-26T02:03:45.855Z,4.28
2023-04-26T02:06:13.120Z,4.28
2023-04-26T02:08:40.144Z,3.45
2023-04-26T02:11:07.556Z,3.70
2023-04-26T02:13:37.582Z,4.32
2023-04-26T02:16:07.889Z,4.63
2023-04-26T02:18:35.587Z,4.00
2023-04-26T02:21:02.825Z,3.72
2023-04-26T02:23:31.664Z,4.05
2023-04-26T02:25:58.861Z,3.53
2023-04-26T02:28:26.098Z,3.60
2023-04-26T02:30:56.876Z,3.47
2023-04-26T02:33:24.761Z,3.30
2023-04-26T02:35:52.010Z,3.65
2023-04-26T02:38:19.891Z,3.85
2023-04-26T02:40:47.394Z,3.85
2023-04-26T02:43:16.862Z,3.40
2023-04-26T02:45:44.550Z,3.17
2023-04-26T02:48:14.398Z,3.63
2023-04-26T02:50:42.088Z,3.75
2023-04-26T02:53:10.491Z,3.53
2023-04-26T02:55:39.465Z,3.40
2023-04-26T02:58:06.621Z,3.65
2023-04-26T03:00:34.369Z,3.63
2023-04-26T03:03:02.925Z,3.70
2023-04-26T03:05:30.513Z,3.95
2023-04-26T03:07:58.284Z,3.47
2023-04-26T03:10:25.460Z,3.35
2023-04-26T03:12:52.631Z,3.47
2023-04-26T03:15:20.449Z,3.63
2023-04-26T03:17:48.048Z,3.45
2023-04-26T03:20:15.754Z,4.15
2023-04-26T03:22:43.023Z,3.30
2023-04-26T03:25:10.590Z,3.45
2023-04-26T03:27:38.191Z,3.13
2023-04-26T03:30:06.300Z,4.13
2023-04-26T03:32:35.597Z,3.33
2023-04-26T03:35:02.969Z,3.47
2023-04-26T03:37:33.739Z,4.35
2023-04-26T03:43:50.125Z,2.92
2023-04-26T03:46:26.847Z,3.05
2023-04-26T03:48:56.412Z,2.88
2023-04-26T03:51:27.874Z,2.83
2023-04-26T03:53:55.813Z,2.67
2023-04-26T03:56:22.941Z,3.80
2023-04-26T03:58:50.306Z,3.65
2023-04-26T04:01:17.782Z,2.65
2023-04-26T04:03:45.758Z,3.33
2023-04-26T04:06:13.021Z,2.97
2023-04-26T04:08:40.295Z,2.75
2023-04-26T04:11:07.349Z,2.45
2023-04-26T04:13:37.243Z,2.72
2023-04-26T04:16:05.013Z,2.33
2023-04-26T04:18:32.126Z,2.15
2023-04-26T04:20:59.592Z,2.60
2023-04-26T04:23:27.576Z,2.33
2023-04-26T04:25:55.001Z,2.20
2023-04-26T04:28:23.397Z,2.08
2023-04-26T04:30:51.033Z,2.40
2023-04-26T04:33:19.312Z,2.35
2023-04-26T04:35:46.904Z,2.00
2023-04-26T04:38:14.387Z,2.33
2023-04-26T04:40:41.477Z,2.33
2023-04-26T04:43:09.146Z,2.95
2023-04-26T04:45:39.006Z,2.00
2023-04-26T04:48:06.959Z,2.38
2023-04-26T04:50:38.832Z,2.15
2023-04-26T04:53:06.069Z,2.30
2023-04-26T04:55:33.908Z,2.10
2023-04-26T04:58:04.244Z,1.95
2023-04-26T05:00:32.729Z,1.83
2023-04-26T05:03:11.389Z,2.20
2023-04-26T05:05:38.760Z,2.08
2023-04-26T05:08:07.973Z,2.20
2023-04-26T05:10:36.134Z,2.35
2023-04-26T05:13:03.670Z,2.22
2023-04-26T05:15:30.828Z,2.72
2023-04-26T05:17:59.719Z,1.83
2023-04-26T05:20:27.213Z,1.88
2023-04-26T05:22:55.813Z,2.40
2023-04-26T05:25:23.082Z,2.00
2023-04-26T05:27:56.074Z,2.00
2023-04-26T05:30:43.505Z,2.08
2023-04-26T05:33:26.300Z,2.40
2023-04-26T05:36:07.374Z,4.22
2023-04-26T05:38:34.476Z,1.95
2023-04-26T05:41:01.588Z,3.38
2023-04-26T05:43:29.484Z,1.80
2023-04-26T05:45:57.399Z,2.30
2023-04-26T05:48:26.662Z,2.33
2023-04-26T05:50:53.964Z,2.05
2023-04-26T05:53:21.124Z,5.25
2023-04-26T05:55:48.519Z,1.88
2023-04-26T05:58:16.272Z,3.85
2023-04-26T06:00:43.547Z,2.25
2023-04-26T06:03:11.309Z,8.13
2023-04-26T06:05:39.065Z,2.10
2023-04-26T06:08:06.336Z,2.38
2023-04-26T06:10:33.553Z,2.08
2023-04-26T06:13:01.100Z,2.00
2023-04-26T06:15:32.254Z,1.90
2023-04-26T06:18:01.078Z,1.90
2023-04-26T06:20:28.776Z,1.83
2023-04-26T06:22:56.076Z,1.83
2023-04-26T06:25:23.351Z,1.60
2023-04-26T06:27:50.465Z,1.70
2023-04-26T06:30:17.564Z,1.83
2023-04-26T06:32:47.814Z,1.52
2023-04-26T06:35:15.428Z,2.30
2023-04-26T06:37:42.997Z,1.90
2023-04-26T06:40:11.303Z,1.52
2023-04-26T06:42:38.909Z,1.70
2023-04-26T06:45:19.034Z,1.33
2023-04-26T06:47:46.872Z,1.90
2023-04-26T06:50:14.679Z,1.70
2023-04-26T06:52:41.749Z,1.65
2023-04-26T06:55:09.436Z,2.17
2023-04-26T06:57:36.870Z,1.55
2023-04-26T07:00:04.760Z,2.97
2023-04-26T07:02:35.548Z,1.80
2023-04-26T07:05:02.793Z,1.60
2023-04-26T07:07:31.961Z,1.98
2023-04-26T07:09:59.042Z,2.13
2023-04-26T07:12:26.495Z,1.75
2023-04-26T07:14:53.611Z,1.80
2023-04-26T07:17:21.680Z,2.00
2023-04-26T07:19:48.804Z,1.90
2023-04-26T07:22:15.885Z,2.00
2023-04-26T07:24:42.928Z,1.50
2023-04-26T07:27:10.450Z,1.70
2023-04-26T07:29:37.479Z,2.22
2023-04-26T07:32:05.113Z,2.33
2023-04-26T07:34:32.433Z,2.05
2023-04-26T07:36:59.712Z,2.28
2023-04-26T07:39:26.919Z,2.10
2023-04-26T07:41:54.030Z,3.33
2023-04-26T07:44:21.459Z,2.17
2023-04-26T07:46:48.588Z,3.10
2023-04-26T07:49:15.763Z,1.80
2023-04-26T07:51:45.176Z,2.80
2023-04-26T07:54:12.296Z,2.05
2023-04-26T07:56:39.301Z,1.90
2023-04-26T07:59:06.409Z,2.40
2023-04-26T08:01:33.744Z,2.08
2023-04-26T08:04:01.116Z,2.40
2023-04-26T08:06:29.455Z,2.40
2023-04-26T08:08:56.493Z,2.20
2023-04-26T08:11:23.758Z,2.10
2023-04-26T08:13:51.095Z,2.95
2023-04-26T08:16:18.424Z,1.98
2023-04-26T08:18:46.896Z,2.47
2023-04-26T08:21:14.341Z,2.38
2023-04-26T08:23:41.969Z,2.70
2023-04-26T08:26:09.058Z,2.53
2023-04-26T08:28:36.374Z,2.60
2023-04-26T08:31:03.738Z,2.40
2023-04-26T08:33:30.884Z,2.40
2023-04-26T08:36:01.266Z,2.53
2023-04-26T08:38:29.804Z,2.65
2023-04-26T08:41:02.119Z,2.90
2023-04-26T08:43:30.214Z,2.17
2023-04-26T08:45:59.845Z,2.60
2023-04-26T08:48:31.795Z,2.30
2023-04-26T08:50:59.340Z,3.55
2023-04-26T08:53:27.991Z,2.78
2023-04-26T08:55:55.857Z,2.53
2023-04-26T08:58:23.887Z,2.90
2023-04-26T09:00:51.231Z,2.42
2023-04-26T09:03:18.609Z,2.75
2023-04-26T09:05:46.049Z,2.30
2023-04-26T09:08:18.353Z,2.55
2023-04-26T09:10:45.854Z,2.78
2023-04-26T09:13:13.108Z,2.42
2023-04-26T09:15:41.450Z,2.80
2023-04-26T09:18:22.331Z,2.63
2023-04-26T09:21:08.931Z,2.35
2023-04-26T09:23:36.100Z,2.42
2023-04-26T09:26:22.582Z,2.50
2023-04-26T09:28:50.671Z,2.60
2023-04-26T09:31:40.373Z,2.67
2023-04-26T09:34:08.879Z,2.60
2023-04-26T09:36:52.191Z,2.90
2023-04-26T09:39:40.426Z,1.98
2023-04-26T09:42:08.780Z,2.72
2023-04-26T09:44:36.622Z,2.60
2023-04-26T09:47:11.927Z,3.35
2023-04-26T09:49:48.927Z,3.00
2023-04-26T09:52:17.089Z,3.25
2023-04-26T09:54:54.873Z,2.97
2023-04-26T09:57:23.735Z,3.58
2023-04-26T09:59:55.253Z,2.70
2023-04-26T10:02:27.950Z,2.95
2023-04-26T10:04:57.455Z,2.90
2023-04-26T10:07:26.153Z,3.28
2023-04-26T10:09:55.702Z,3.13
2023-04-26T10:12:23.102Z,2.72
2023-04-26T10:14:50.857Z,2.95
2023-04-26T10:17:19.873Z,3.08
2023-04-26T10:19:50.100Z,3.13
2023-04-26T10:22:29.204Z,3.42
2023-04-26T10:24:56.614Z,3.45
2023-04-26T10:27:45.406Z,3.40
2023-04-26T10:30:16.559Z,3.88
2023-04-26T10:32:53.309Z,4.90
2023-04-26T10:35:21.894Z,4.47
2023-04-26T10:38:01.296Z,4.28
2023-04-26T10:40:41.477Z,4.57
2023-04-26T10:43:14.862Z,4.90
2023-04-26T10:45:46.185Z,5.13
2023-04-26T10:48:18.954Z,4.82
2023-04-26T10:51:02.050Z,5.30
2023-04-26T10:53:33.625Z,5.00
2023-04-26T10:56:00.774Z,5.32
2023-04-26T10:58:33.008Z,4.63
2023-04-26T11:01:17.480Z,4.72
2023-04-26T11:04:09.791Z,5.70
2023-04-26T11:06:57.997Z,6.00
2023-04-26T11:09:39.973Z,5.50
2023-04-26T11:12:12.573Z,4.90
2023-04-26T11:14:42.036Z,5.25
2023-04-26T11:17:10.086Z,5.72
2023-04-26T11:19:37.271Z,4.30
2023-04-26T11:22:07.836Z,4.65
2023-04-26T11:24:42.856Z,4.82
2023-04-26T11:27:11.520Z,4.78
2023-04-26T11:29:39.188Z,4.55
2023-04-26T11:32:06.976Z,4.35
2023-04-26T11:34:39.344Z,4.10
2023-04-26T11:37:07.401Z,4.10
2023-04-26T11:39:37.955Z,3.83
2023-04-26T11:42:12.062Z,3.42
2023-04-26T11:44:41.269Z,3.60
2023-04-26T11:47:09.259Z,3.83
2023-04-26T11:49:37.777Z,3.42
2023-04-26T11:52:06.631Z,4.13
2023-04-26T11:54:35.966Z,3.00
2023-04-26T11:57:16.665Z,3.67
2023-04-26T11:59:45.163Z,2.20
2023-04-26T12:02:12.586Z,2.22
2023-04-26T12:04:41.578Z,2.05
2023-04-26T12:07:09.696Z,2.20
2023-04-26T12:09:42.463Z,1.90
2023-04-26T12:12:09.628Z,1.85
2023-04-26T12:14:41.039Z,1.67
2023-04-26T12:17:08.640Z,1.85
2023-04-26T12:19:40.652Z,1.77
2023-04-26T12:22:08.972Z,2.08
2023-04-26T12:24:37.700Z,1.50
2023-04-26T12:27:07.289Z,1.83
2023-04-26T12:29:35.573Z,1.58
2023-04-26T12:32:06.376Z,1.77
2023-04-26T12:34:33.576Z,1.65
2023-04-26T12:37:00.708Z,1.90
2023-04-26T12:39:29.603Z,1.83
2023-04-26T12:41:59.491Z,1.92
2023-04-26T12:44:27.186Z,1.73
2023-04-26T12:46:54.414Z,2.10
2023-04-26T12:49:21.536Z,1.90
2023-04-26T12:51:48.666Z,2.00
2023-04-26T12:54:15.827Z,2.05
2023-04-26T12:56:44.611Z,1.95
2023-04-26T12:59:12.025Z,1.80
2023-04-26T13:01:39.227Z,1.83
2023-04-26T13:04:07.020Z,1.95
2023-04-26T13:06:35.959Z,1.83
2023-04-26T13:09:03.889Z,1.90
2023-04-26T13:11:31.294Z,2.08
2023-04-26T13:13:58.471Z,1.92
2023-04-26T13:16:26.237Z,2.30
2023-04-26T13:18:54.498Z,2.05
2023-04-26T13:21:21.650Z,2.22
2023-04-26T13:23:48.719Z,2.00
2023-04-26T13:26:18.262Z,2.05
2023-04-26T13:28:45.684Z,1.85
2023-04-26T13:31:12.782Z,3.67
2023-04-26T13:33:39.986Z,2.03
2023-04-26T13:36:07.412Z,1.63
2023-04-26T13:38:34.624Z,1.80
2023-04-26T13:41:02.827Z,2.05
2023-04-26T13:43:29.985Z,2.00
2023-04-26T13:45:57.195Z,1.90
2023-04-26T13:48:24.309Z,2.08
2023-04-26T13:50:51.508Z,1.80
2023-04-26T13:53:19.897Z,2.28
2023-04-26T13:55:47.002Z,2.45
2023-04-26T13:58:14.438Z,2.42
2023-04-26T14:00:42.120Z,2.10
2023-04-26T14:03:09.324Z,1.90
2023-04-26T14:05:36.758Z,1.95
2023-04-26T14:08:03.965Z,2.00
2023-04-26T14:10:31.124Z,2.38
2023-04-26T14:12:58.301Z,2.58
2023-04-26T14:15:25.709Z,2.40
2023-04-26T14:17:52.798Z,2.30
2023-04-26T14:20:19.925Z,2.50
2023-04-26T14:22:46.996Z,2.30
2023-04-26T14:25:14.169Z,2.63
2023-04-26T14:27:41.469Z,2.60
2023-04-26T14:30:08.977Z,2.15
2023-04-26T14:32:36.351Z,2.50
2023-04-26T14:35:03.968Z,2.40
2023-04-26T14:37:31.265Z,2.20
2023-04-26T14:39:58.328Z,2.30
2023-04-26T14:42:25.389Z,2.55
2023-04-26T14:44:52.442Z,2.60
2023-04-26T14:47:19.516Z,2.60
2023-04-26T14:49:46.884Z,2.45
2023-04-26T14:52:13.985Z,2.55
2023-04-26T14:54:41.784Z,2.70
2023-04-26T14:57:10.574Z,2.55
2023-04-26T14:59:37.802Z,2.58
2023-04-26T15:02:05.392Z,3.03
2023-04-26T15:04:32.802Z,2.50
2023-04-26T15:07:00.147Z,2.92
2023-04-26T15:09:29.764Z,2.40
2023-04-26T15:11:57.503Z,2.90
2023-04-26T15:14:24.733Z,2.90
2023-04-26T15:16:51.804Z,2.72
2023-04-26T15:19:20.286Z,2.70
2023-04-26T15:21:47.339Z,2.55
2023-04-26T15:24:14.476Z,2.63
2023-04-26T15:26:41.635Z,2.80
2023-04-26T15:29:11.784Z,2.85
2023-04-26T15:31:38.966Z,3.00
2023-04-26T15:34:06.217Z,2.83
2023-04-26T15:36:33.314Z,3.03
2023-04-26T15:39:01.329Z,3.20
2023-04-26T15:41:28.613Z,2.90
2023-04-26T15:43:55.928Z,2.75
2023-04-26T15:46:23.263Z,2.67
2023-04-26T15:48:50.445Z,3.10
2023-04-26T15:51:17.564Z,2.97
2023-04-26T15:53:44.799Z,3.10
2023-04-26T15:56:16.167Z,2.83
2023-04-26T15:58:47.132Z,3.05
2023-04-26T16:01:15.618Z,2.92
2023-04-26T16:03:46.476Z,2.80
2023-04-26T16:06:14.626Z,2.78
2023-04-26T16:08:45.077Z,2.83
2023-04-26T16:11:12.488Z,3.42
2023-04-26T16:13:39.798Z,2.53
2023-04-26T16:16:10.896Z,2.97
2023-04-26T16:18:39.957Z,2.88
2023-04-26T16:21:12.768Z,2.90
2023-04-26T16:23:41.993Z,3.10
2023-04-26T16:26:09.639Z,2.97
2023-04-26T16:28:36.995Z,2.72
2023-04-26T16:31:04.382Z,3.13
2023-04-26T16:33:31.529Z,3.42
2023-04-26T16:35:58.929Z,3.10
2023-04-26T16:38:28.245Z,3.00
2023-04-26T16:40:59.380Z,3.30
2023-04-26T16:43:30.311Z,2.83
2023-04-26T16:46:06.873Z,3.30
2023-04-26T16:48:36.016Z,3.10
2023-04-26T16:53:34.500Z,3.25
2023-04-26T16:56:01.774Z,2.83
2023-04-26T16:58:29.136Z,2.88
2023-04-26T17:00:56.760Z,2.90
2023-04-26T17:03:24.786Z,2.78
2023-04-26T17:05:52.190Z,2.65
2023-04-26T17:12:35.650Z,3.03
2023-04-26T17:15:04.557Z,3.55
2023-04-26T17:17:32.897Z,3.28
2023-04-26T17:20:00.057Z,3.08
2023-04-26T17:22:27.327Z,3.60
2023-04-26T17:24:56.748Z,2.80
2023-04-26T17:27:24.942Z,3.58
2023-04-26T17:29:52.037Z,3.00
2023-04-26T17:32:19.229Z,3.45
2023-04-26T17:34:47.052Z,4.22
2023-04-26T17:37:14.152Z,3.08
2023-04-26T17:39:41.206Z,3.05
2023-04-26T17:42:08.281Z,3.40
2023-04-26T17:44:35.510Z,2.95
2023-04-26T17:47:02.616Z,3.20
2023-04-26T17:49:29.877Z,3.30
2023-04-26T17:51:56.968Z,3.40
2023-04-26T17:54:24.050Z,3.13
2023-04-26T17:56:51.531Z,4.82
2023-04-26T17:59:18.678Z,3.20
2023-04-26T18:01:46.136Z,3.58
2023-04-26T18:04:13.586Z,2.97
2023-04-26T18:06:41.265Z,2.72
2023-04-26T18:09:08.738Z,3.95
2023-04-26T18:11:35.860Z,3.85
2023-04-26T18:14:02.975Z,2.95
2023-04-26T18:16:30.085Z,3.08
2023-04-26T18:18:57.181Z,2.92
2023-04-26T18:21:24.233Z,2.92
2023-04-26T18:23:51.442Z,2.75
2023-04-26T18:26:21.826Z,2.60
2023-04-26T18:28:49.124Z,3.08
2023-04-26T18:31:16.260Z,2.72
2023-04-26T18:33:43.551Z,6.22
2023-04-26T18:36:10.669Z,4.25
2023-04-26T18:38:37.771Z,3.35
2023-04-26T18:41:04.924Z,2.75
2023-04-26T18:43:32.144Z,3.35
2023-04-26T18:45:59.227Z,4.38
2023-04-26T18:48:26.446Z,4.82
2023-04-26T18:50:55.012Z,3.47
2023-04-26T18:53:22.450Z,3.30
2023-04-26T18:55:53.463Z,3.60
2023-04-26T18:58:20.626Z,3.28
2023-04-26T19:00:49.863Z,3.60
2023-04-26T19:05:44.158Z,3.03
2023-04-26T19:08:11.801Z,3.22
2023-04-26T19:10:38.909Z,3.00
2023-04-26T19:13:06.002Z,2.92
2023-04-26T19:15:33.212Z,3.15
2023-04-26T19:18:00.872Z,3.33
2023-04-26T19:20:28.078Z,4.35
2023-04-26T19:22:55.129Z,3.70
2023-04-26T19:25:23.461Z,3.92
2023-04-26T19:27:50.994Z,3.80
2023-04-26T19:30:18.341Z,3.33
2023-04-26T19:32:45.483Z,4.30
2023-04-26T19:35:12.665Z,3.40
2023-04-26T19:37:39.804Z,3.40
2023-04-26T19:40:07.858Z,3.20
2023-04-26T19:42:34.962Z,3.17
2023-04-26T19:45:02.090Z,3.03
2023-04-26T19:47:32.257Z,4.80
2023-04-26T19:49:59.710Z,3.90
2023-04-26T19:52:26.821Z,3.50
2023-04-26T19:54:54.914Z,3.47
2023-04-26T19:57:22.280Z,3.63
2023-04-26T19:59:49.416Z,4.22
2023-04-26T20:02:16.751Z,3.80
2023-04-26T20:04:44.838Z,12.70
2023-04-26T20:07:12.153Z,6.88
2023-04-26T20:09:39.227Z,4.43
2023-04-26T20:12:07.112Z,3.67
2023-04-26T20:14:34.881Z,3.60
2023-04-26T20:17:02.567Z,3.40
2023-04-26T20:19:30.108Z,4.22
2023-04-26T20:21:57.260Z,3.55
2023-04-26T20:24:27.821Z,3.60
2023-04-26T20:26:57.978Z,3.78
2023-04-26T20:29:25.118Z,4.00
2023-04-26T20:31:52.322Z,4.97
2023-04-26T20:34:19.440Z,3.92
2023-04-26T20:36:46.744Z,4.80
2023-04-26T20:39:13.775Z,3.90
2023-04-26T20:41:41.041Z,5.88
2023-04-26T20:44:08.137Z,3.70
2023-04-26T20:46:35.382Z,4.43
2023-04-26T20:49:02.796Z,3.97
2023-04-26T20:51:29.890Z,4.15
2023-04-26T20:53:57.081Z,4.45
2023-04-26T20:56:24.279Z,3.78
2023-04-26T20:58:51.335Z,4.53
2023-04-26T21:01:18.476Z,3.53
2023-04-26T21:03:45.771Z,3.80
2023-04-26T21:06:13.000Z,3.80
2023-04-26T21:08:41.178Z,4.65
2023-04-26T21:11:08.376Z,4.10
2023-04-26T21:13:35.636Z,4.63
2023-04-26T21:16:03.017Z,3.85
2023-04-26T21:18:30.344Z,4.55
2023-04-26T21:20:57.466Z,4.22
2023-04-26T21:23:24.662Z,4.30
2023-04-26T21:25:51.704Z,4.05
2023-04-26T21:28:19.156Z,3.92
2023-04-26T21:30:46.340Z,4.55
2023-04-26T21:33:15.961Z,3.97
2023-04-26T21:35:43.357Z,3.95
2023-04-26T21:38:10.495Z,3.97
2023-04-26T21:40:37.565Z,4.05
2023-04-26T21:43:05.709Z,4.55
2023-04-26T21:45:33.072Z,4.60
2023-04-26T21:48:00.202Z,4.38
2023-04-26T21:50:27.660Z,4.13
2023-04-26T21:52:55.227Z,4.57
2023-04-26T21:55:22.291Z,4.80
2023-04-26T21:57:49.298Z,4.43
2023-04-26T22:00:17.393Z,4.95
2023-04-26T22:02:47.230Z,5.13
2023-04-26T22:05:14.425Z,4.75
2023-04-26T22:07:41.459Z,4.63
2023-04-26T22:10:08.909Z,4.55
2023-04-26T22:12:36.111Z,4.93
2023-04-26T22:15:03.277Z,4.50
2023-04-26T22:17:32.408Z,5.18
2023-04-26T22:19:59.601Z,4.85
2023-04-26T22:22:26.706Z,5.28
2023-04-26T22:24:53.878Z,5.18
2023-04-26T22:27:20.959Z,5.63
2023-04-26T22:29:48.054Z,5.25
2023-04-26T22:32:15.172Z,4.53
2023-04-26T22:34:43.747Z,5.70
2023-04-26T22:37:20.868Z,6.10
2023-04-26T22:39:49.642Z,5.00
2023-04-26T22:42:16.871Z,5.55
2023-04-26T22:44:44.091Z,5.47
2023-04-26T22:47:11.227Z,5.53
2023-04-26T22:49:38.310Z,5.05
2023-04-26T22:52:09.866Z,5.10
2023-04-26T22:54:41.549Z,5.10
2023-04-26T22:57:08.613Z,4.85
2023-04-26T22:59:35.831Z,4.90
2023-04-26T23:02:02.884Z,4.78
2023-04-26T23:04:30.050Z,5.20
2023-04-26T23:06:57.230Z,5.82
2023-04-26T23:09:24.343Z,5.22
2023-04-26T23:11:51.416Z,4.95
2023-04-26T23:14:19.928Z,4.70
2023-04-26T23:16:47.026Z,4.28
2023-04-26T23:19:14.696Z,4.65
2023-04-26T23:21:42.202Z,4.90
2023-04-26T23:24:09.303Z,4.97
2023-04-26T23:26:36.354Z,4.95
2023-04-26T23:29:03.457Z,4.28
2023-04-26T23:31:30.632Z,4.80
2023-04-26T23:33:57.756Z,5.03
2023-04-26T23:36:25.058Z,4.85
2023-04-26T23:38:52.137Z,4.60
2023-04-26T23:41:19.183Z,4.57
2023-04-26T23:43:46.405Z,6.45
2023-04-26T23:46:13.513Z,6.07
2023-04-26T23:48:41.074Z,5.68
2023-04-26T23:51:08.132Z,4.93
2023-04-26T23:53:35.293Z,5.32
2023-04-26T23:56:02.327Z,7.45
2023-04-26T23:58:29.946Z,5.60
